createdAt,value
2018-12-09T14:36:13.240Z,141635.13
2018-12-09T14:38:42.338Z,141646.27
2018-12-09T14:41:11.450Z,141636.38
2018-12-09T14:43:40.605Z,141652.41
2018-12-09T14:46:09.428Z,141621.53
2018-12-09T14:48:38.644Z,141626.48
2018-12-09T14:51:07.446Z,141657.36
2018-12-09T14:53:36.485Z,141591.86
2018-12-09T14:56:05.676Z,141617.84
2018-12-09T14:58:34.903Z,141586.92
2018-12-09T15:01:03.877Z,141601.75
2018-12-09T15:03:32.904Z,141621.53
2018-12-09T15:06:02.101Z,141651.16
2018-12-09T15:08:30.949Z,141619.05
2018-12-09T15:11:00.025Z,141604.25
2018-12-09T15:13:35.317Z,141581.97
2018-12-09T15:16:04.306Z,141579.53
2018-12-09T15:18:33.175Z,141574.58
2018-12-09T15:21:02.025Z,141600.50
2018-12-09T15:23:31.095Z,141586.92
2018-12-09T15:26:00.162Z,141577.03
2018-12-09T15:28:29.380Z,141590.63
2018-12-09T15:30:58.329Z,141591.86
2018-12-09T15:33:27.237Z,141596.81
2018-12-09T15:35:56.523Z,141583.22
2018-12-09T15:38:25.450Z,141568.39
2018-12-09T15:40:54.625Z,141572.09
2018-12-09T15:43:23.787Z,141573.34
2018-12-09T15:45:52.823Z,141583.22
2018-12-09T15:48:21.677Z,141581.97
2018-12-09T15:50:50.565Z,141579.53
2018-12-09T15:53:19.437Z,141574.58
2018-12-09T15:55:48.285Z,141570.87
2018-12-09T15:58:17.086Z,141559.75
2018-12-09T16:00:51.211Z,141580.78
2018-12-09T16:03:20.364Z,141564.69
2018-12-09T16:05:49.151Z,141579.53
2018-12-09T16:08:18.021Z,141579.53
2018-12-09T16:10:46.924Z,141562.25
2018-12-09T16:13:16.025Z,141561.00
2018-12-09T16:15:45.115Z,141557.30
2018-12-09T16:18:14.140Z,141554.80
2018-12-09T16:20:43.118Z,141556.05
2018-12-09T16:23:11.903Z,141572.09
2018-12-09T16:25:40.699Z,141577.03
2018-12-09T16:28:09.558Z,141572.09
2018-12-09T16:30:38.380Z,141559.75
2018-12-09T16:33:07.189Z,141556.05
2018-12-09T16:35:36.556Z,141559.75
2018-12-09T16:38:05.397Z,141547.41
2018-12-09T16:40:34.236Z,141546.16
